Tiempo atmosférico en la estación meteorológica de Andorra, Teruel (762 m.)



Fecha
DESCASC
Temp. máxima en grados centígrados (hora)
DESCASC
Temp. mínima en grados centígrados (hora)
DESCASC
Temp. media en grados centígrados
DESCASC
Racha de viento máxima en m/sg (hora)
DESCASC
Velocidad máxima media en intervalos de 10 minutos(hora)
DESCASC
Precipitaciones diarias en mm
DESCASC
Precipitaciones de 00:00 a 06:00 en mm
DESCASC
Precipitaciones de 06:00 a 12:00 en mm
DESCASC
Precipitaciones de 12:00 a 18:00 en mm
DESCASC
Precipitaciones de 18:00 a 24:00 en mm
DESCASC
18-04-2019 16 (16:10) 9.5 (06:30) 12.8 18.89 (16:30) 15 (18:20) 0.2 0 0 0 0.2
17-04-2019 19.5 (15:30) 7.6 (07:20) 13.5 11.94 (17:50) 9.44 (17:20) 0 0 0 0 0
16-04-2019 16.8 (18:00) 7.3 (00:00) 12 10.83 (01:20) 8.89 (00:40) 1 0.8 0 0.2 0
15-04-2019 21.5 (16:00) 11.4 (00:00) 16.4 13.33 (23:20) 8.89 (23:59) 0 0 0 0 0
14-04-2019 22.6 (17:20) 9 (00:00) 15.8 12.5 (10:20) 10 (10:10) 0 0 0 0 0
13-04-2019 19.1 (17:00) 3.5 (00:00) 11.3 10.28 (00:50) 8.61 (00:50) 0 0 0 0 0
12-04-2019 15.7 (18:20) 4.5 (00:00) 10.1 16.94 (01:00) 12.22 (01:00) 0 0 0 0 0
11-04-2019 12.6 (16:20) 4.6 (00:00) 8.6 18.33 (11:40) 14.17 (19:20) 0 0 0 0 0
10-04-2019 12.6 (16:00) 5.3 (00:00) 9 15.56 (23:30) 12.22 (03:00) 1.4 0 0 1.4 0
09-04-2019 14.6 (16:40) 5.8 (00:00) 10.2 18.06 (19:40) 14.72 (19:50) 0 0 0 0 0
08-04-2019 14.5 (19:00) 5.7 (00:00) 10.1 11.67 (11:10) 9.72 (02:20) 5.6 1.4 0.2 4 0
07-04-2019 12.7 (18:50) 4.1 (00:00) 8.4 16.67 (02:30) 13.06 (02:30) 0 0 0 0 0
06-04-2019 11.5 (16:10) 3.8 (00:00) 7.6 21.67 (22:50) 16.94 (22:50) 0.6 0 0 0.4 0.2
05-04-2019 12.5 (13:50) 4.2 (00:00) 8.3 18.61 (22:50) 13.89 (23:00) 2.8 0 0 2.6 0.2
04-04-2019 12.7 (18:10) -0.5 (-00:0) 6.1 10.28 (14:10) 6.67 (14:00) 0 0 0 0 0
03-04-2019 9.9 (12:50) 2.1 (23:59) 6 13.89 (20:40) 9.72 (20:40) 0.8 0 0 0 0.8
02-04-2019 15.3 (16:20) 7.7 (00:00) 11.5 12.22 (18:40) 9.72 (18:40) 1.4 0 0 0 1.4
01-04-2019 12.2 (18:00) 5.7 (00:00) 8.9 6.67 (16:40) 4.72 (16:20) 7.6 2.4 4.2 1 0
31-03-2019 7.6 (14:30) 4 (00:00) 5.8 4.72 (14:40) 3.61 (16:50) 7.2 0 0 3.2 4
30-03-2019 14.8 (15:30) 2.9 (00:00) 8.9 11.11 (18:10) 9.72 (18:10) 0 0 0 0 0
29-03-2019 15.1 (15:20) 5.5 (00:00) 10.3 12.5 (13:50) 9.17 (13:50) 0 0 0 0 0
28-03-2019 15.6 (16:20) 3 (00:00) 9.3 7.78 (02:10) 5.83 (01:40) 0 0 0 0 0
27-03-2019 15.7 (15:20) 2.5 (00:00) 9.1 11.11 (08:50) 9.17 (08:50) 0 0 0 0 0
26-03-2019 15.2 (16:10) 2.7 (00:00) 8.9 11.94 (01:00) 10 (01:00) 0 0 0 0 0
25-03-2019 16 (14:30) 5 (00:00) 10.5 13.06 (20:50) 10.28 (22:20) 0 0 0 0 0
24-03-2019 19.3 (16:00) 7.6 (00:00) 13.4 9.72 (23:00) 6.67 (23:10) 0 0 0 0 0
23-03-2019 17 (15:50) 6.3 (00:00) 11.7 10.28 (15:10) 6.67 (16:10) 0 0 0 0 0
22-03-2019 14.5 (15:00) 3.2 (00:00) 8.9 8.33 (15:20) 5 (15:40) 0 0 0 0 0
21-03-2019 12.2 (14:10) 0.4 (00:00) 6.3 7.78 (14:50) 5.56 (03:10) 0 0 0 0 0

Gráficas

Temp. máximas Temp. mínimas Temp. medias Precipitaciones Rachas de viento máximas Velocidades máximas media en intervalos de 10 minutos

Datos horarios

Fecha y hora oficial Temperatura (ºC) Velocidad del viento (km/h) Dirección del viento Racha (km/h) Dirección de racha Precipitación (mm) Presión (hPa) Tendencia (hPa) Humedad (%)
2019-04-19 23:00:00 11.3 23 Este 32 Este 0 -- -- 64
2019-04-19 22:00:00 11.5 23 Este 46 Este 0 -- -- 63
2019-04-19 21:00:00 11.8 23 Este 46 Este 0 -- -- 61
2019-04-19 20:00:00 12.5 34 Este 60 Este 0 -- -- 58
2019-04-19 19:00:00 13.6 45 Este 73 Este 0 -- -- 56
2019-04-19 18:00:00 13.7 50 Este 75 Este 0 -- -- 57
2019-04-19 17:00:00 14.3 52 Este 75 Este 0 -- -- 51
2019-04-19 16:00:00 14.2 54 Este 75 Este 0 -- -- 52
2019-04-19 15:00:00 13.6 60 Este 76 Este 0 -- -- 57
2019-04-19 14:00:00 12.3 55 Este 73 Este 0 -- -- 65
2019-04-19 13:00:00 11.9 46 Este 82 Este 0 -- -- 74
2019-04-19 12:00:00 10.3 40 Este 56 Este 0.2 -- -- 86
2019-04-19 11:00:00 8.9 34 Este 53 Este 0 -- -- 98
2019-04-19 10:00:00 9.1 35 Este 49 Este 0 -- -- 99
2019-04-19 09:00:00 9.1 30 Este 38 Este 0.2 -- -- 98
2019-04-19 08:00:00 9 33 Este 42 Este 0 -- -- 98
2019-04-19 07:00:00 9.1 25 Este 35 Este 0 -- -- 98
2019-04-19 06:00:00 9.2 26 Este 37 Este 0.2 -- -- 98
2019-04-19 05:00:00 9 28 Este 36 Este 0.2 -- -- 97
2019-04-19 04:00:00 9.1 22 Este 32 Este 2.2 -- -- 96
2019-04-19 03:00:00 9.1 14 Este 28 Este 1.4 -- -- 95
2019-04-19 02:00:00 9.2 18 Este 31 Nordeste 0 -- -- 92
2019-04-19 01:00:00 9.6 27 Este 46 Este 0 -- -- 91
2019-04-19 00:00:00 10.4 41 Este 54 Este 0.2 -- -- 84
2019-04-18 23:00:00 11.6 38 Este 50 Este 0 -- -- 73
2019-04-18 22:00:00 11.9 4 Sudeste 28 Este 0 -- -- 72
2019-04-18 21:00:00 12 25 Este 56 Este 0 -- -- 65
2019-04-18 20:00:00 12.6 40 Este 62 Este 0 -- -- 60
2019-04-18 19:00:00 13.2 30 Este 65 Este 0 -- -- 60
2019-04-18 18:00:00 14.2 27 Este 44 Este 0 -- -- 56
2019-04-18 17:00:00 15.1 43 Este 68 Sudeste 0 -- -- 49
2019-04-18 16:00:00 15.9 53 Este 67 Este 0 -- -- 46
2019-04-18 15:00:00 15.6 49 Este 64 Este 0 -- -- 48
2019-04-18 14:00:00 14.5 35 Este 47 Nordeste 0 -- -- 60
2019-04-18 13:00:00 12.1 27 Nordeste 34 Este 0 -- -- 68
2019-04-18 12:00:00 10.7 29 Este 35 Este 0 -- -- 73
2019-04-18 11:00:00 10.5 18 Este 25 Este 0 -- -- 83
2019-04-18 10:00:00 9.5 21 Este 30 Este 0 -- -- 88
2019-04-18 09:00:00 9.8 20 Nordeste 28 Este 0 -- -- 85
2019-04-18 08:00:00 9.9 13 Este 27 Este 0 -- -- 82
2019-04-18 07:00:00 9.6 24 Este 32 Este 0 -- -- 81
2019-04-18 06:00:00 9.9 17 Este 31 Este 0 -- -- 75
2019-04-18 05:00:00 10.3 15 Este 28 Este 0 -- -- 69
2019-04-18 04:00:00 10.6 6 Sudeste 26 Sudeste 0 -- -- 61
2019-04-18 03:00:00 10.2 16 Este 33 Sudeste 0 -- -- 66
2019-04-18 02:00:00 11.9 13 Sudeste 29 Sudeste 0 -- -- 51
2019-04-18 01:00:00 11.2 5 Este 21 Sudeste 0 -- -- 65
2019-04-18 00:00:00 11.9 15 Sudeste 31 Sudeste 0 -- -- 64
2019-04-17 23:00:00 12.2 21 Sudeste 31 Sudeste 0 -- -- 68
2019-04-17 22:00:00 13.4 17 Sudeste 32 Sudeste 0 -- -- 65
2019-04-17 21:00:00 14.2 13 Este 25 Este 0 -- -- 65
2019-04-17 20:00:00 16.5 10 Este 28 Este 0 -- -- 58
2019-04-17 19:00:00 17.7 24 Este 36 Este 0 -- -- 55
2019-04-17 18:00:00 18.1 31 Este 43 Este 0 -- -- 50
2019-04-17 17:00:00 18.4 32 Este 39 Este 0 -- -- 47
2019-04-17 16:00:00 18.8 27 Este 39 Este 0 -- -- 46
2019-04-17 15:00:00 18.8 24 Este 40 Este 0 -- -- 46
2019-04-17 14:00:00 18 23 Este 36 Nordeste 0 -- -- 52
2019-04-17 13:00:00 15.9 22 Este 33 Este 0 -- -- 58
2019-04-17 12:00:00 14.4 20 Este 30 Este 0 -- -- 61
2019-04-17 11:00:00 13.1 15 Nordeste 23 Este 0 -- -- 64
2019-04-17 10:00:00 11.2 12 Este 19 Este 0 -- -- 68
2019-04-17 09:00:00 10.1 6 Nordeste 9 Este 0 -- -- 72
2019-04-17 08:00:00 8.9 5 Este 8 Este 0 -- -- 75
2019-04-17 07:00:00 8.2 4 Sudoeste 10 Sudeste 0 -- -- 75
2019-04-17 06:00:00 8.8 6 Este 30 Sur 0 -- -- 73
2019-04-17 05:00:00 9 19 Sur 26 Sudeste 0 -- -- 75
2019-04-17 04:00:00 8.9 21 Sur 28 Sur 0 -- -- 75
2019-04-17 03:00:00 9.4 19 Sur 33 Sur 0 -- -- 76
2019-04-17 02:00:00 9.9 19 Sur 33 Sur 0 -- -- 77
2019-04-17 01:00:00 10.2 19 Sudeste 30 Sudeste 0 -- -- 78
2019-04-17 00:00:00 10.6 18 Sudeste 28 Sudeste 0 -- -- 75
2019-04-16 23:00:00 11 19 Sudeste 30 Sudeste 0 -- -- 73
2019-04-16 22:00:00 11.5 21 Sudeste 29 Sudeste 0 -- -- 72
2019-04-16 21:00:00 12.6 16 Sudeste 28 Sudeste 0 -- -- 72
2019-04-16 20:00:00 14.3 16 Sudeste 36 Este 0 -- -- 66
2019-04-16 19:00:00 16.4 21 Este 28 Este 0 -- -- 49
2019-04-16 18:00:00 16.8 12 Nordeste 29 Nordeste 0 -- -- 47
2019-04-16 17:00:00 16.4 15 Este 23 Este 0 -- -- 48
2019-04-16 16:00:00 16.5 12 Nordeste 27 Este 0 -- -- 50
2019-04-16 15:00:00 16.3 12 Este 24 Este 0 -- -- 51
2019-04-16 14:00:00 15.4 9 Este 23 Nordeste 0.2 -- -- 57
2019-04-16 13:00:00 15 7 Noroeste 21 Norte 0 -- -- 61
2019-04-16 12:00:00 13.2 11 Noroeste 22 Noroeste 0 -- -- 69
2019-04-16 11:00:00 11.2 8 Noroeste 24 Oeste 0 -- -- 78
2019-04-16 10:00:00 9.2 16 Oeste 26 Oeste 0 -- -- 90
2019-04-16 09:00:00 8.4 14 Oeste 32 Oeste 0 -- -- 92
2019-04-16 08:00:00 7.8 28 Oeste 37 Oeste 0 -- -- 94
2019-04-16 07:00:00 7.5 22 Oeste 28 Oeste 0 -- -- 94
2019-04-16 06:00:00 7.5 15 Oeste 21 Oeste 0 -- -- 95
2019-04-16 05:00:00 7.5 13 Oeste 32 Oeste 0 -- -- 95
2019-04-16 04:00:00 8 27 Oeste 36 Oeste 0.6 -- -- 93
2019-04-16 03:00:00 8.6 20 Oeste 30 Noroeste 0.2 -- -- 90
2019-04-16 02:00:00 9.1 13 Noroeste 39 Noroeste 0 -- -- 84
2019-04-16 01:00:00 8.7 30 Noroeste 39 Noroeste 0 -- -- 87
2019-04-16 00:00:00 12.6 32 Oeste 48 Noroeste 0 -- -- 72
2019-04-15 23:00:00 15.1 23 Sudoeste 35 Sudoeste 0 -- -- 61
2019-04-15 22:00:00 14.2 17 Sur 22 Sur 0 -- -- 58
2019-04-15 21:00:00 14.7 6 Noroeste 25 Sur 0 -- -- 55
2019-04-15 20:00:00 15.5 15 Sudeste 37 Sudeste 0 -- -- 52
2019-04-15 19:00:00 16.9 26 Sudeste 39 Sudeste 0 -- -- 48
2019-04-15 18:00:00 18.7 18 Sudeste 35 Sur 0 -- -- 45
2019-04-15 17:00:00 19.8 24 Sur 37 Sur 0 -- -- 44
2019-04-15 16:00:00 21.5 22 Sur 37 Este 0 -- -- 44
2019-04-15 15:00:00 19.7 23 Este 37 Sudeste 0 -- -- 47
2019-04-15 14:00:00 19.5 15 Sudeste 36 Este 0 -- -- 47
2019-04-15 13:00:00 19.2 26 Este 35 Este 0 -- -- 47
2019-04-15 12:00:00 18.4 14 Este 29 Este 0 -- -- 50
2019-04-15 11:00:00 17 15 Este 29 Sudeste 0 -- -- 56
2019-04-15 10:00:00 16.1 5 Este 12 Sur 0 -- -- 64
2019-04-15 09:00:00 14.3 7 Sur 12 Este 0 -- -- 65
2019-04-15 08:00:00 14.3 8 Este 10 Este 0 -- -- 67
2019-04-15 07:00:00 12 3 Sur 16 Sur 0 -- -- 74
2019-04-15 06:00:00 13.5 4 Nordeste 13 Oeste 0 -- -- 69
2019-04-15 05:00:00 12.4 9 Sudoeste 13 Sur 0 -- -- 74
2019-04-15 04:00:00 13.8 12 Oeste 14 Oeste 0 -- -- 69
2019-04-15 03:00:00 14.2 10 Sudoeste 13 Sudoeste 0 -- -- 66
2019-04-15 02:00:00 14.4 10 Oeste 15 Sudoeste 0 -- -- 67
2019-04-15 01:00:00 14.2 14 Sudoeste 25 Oeste 0 -- -- 67
2019-04-15 00:00:00 14.2 22 Oeste 27 Oeste 0 -- -- 66
2019-04-14 23:00:00 15.8 23 Oeste 27 Noroeste 0 -- -- 61
2019-04-14 22:00:00 16.7 16 Oeste 24 Oeste 0 -- -- 56
2019-04-14 21:00:00 17.9 17 Noroeste 29 Noroeste 0 -- -- 50
2019-04-14 20:00:00 19.3 18 Norte 37 Noroeste 0 -- -- 46
2019-04-14 19:00:00 20.6 21 Norte 31 Noroeste 0 -- -- 43
2019-04-14 18:00:00 22.2 18 Noroeste 34 Noroeste 0 -- -- 41
2019-04-14 17:00:00 22.4 17 Noroeste 32 Noroeste 0 -- -- 39
2019-04-14 16:00:00 21.5 20 Noroeste 34 Noroeste 0 -- -- 39
2019-04-14 15:00:00 21.5 18 Norte 41 Oeste 0 -- -- 38
2019-04-14 14:00:00 19.7 23 Oeste 43 Oeste 0 -- -- 43
2019-04-14 13:00:00 18.6 24 Oeste 39 Oeste 0 -- -- 43
2019-04-14 12:00:00 17.1 28 Oeste 40 Oeste 0 -- -- 47
2019-04-14 11:00:00 16.2 32 Oeste 45 Oeste 0 -- -- 47
2019-04-14 10:00:00 13.9 32 Oeste 39 Oeste 0 -- -- 47
2019-04-14 09:00:00 11.1 23 Oeste 31 Oeste 0 -- -- 43
2019-04-14 08:00:00 9.9 24 Oeste 29 Oeste 0 -- -- 43
2019-04-14 07:00:00 9 25 Oeste 29 Oeste 0 -- -- 41
2019-04-14 06:00:00 9 26 Oeste 31 Oeste 0 -- -- 37
2019-04-14 05:00:00 9.3 24 Oeste 31 Oeste 0 -- -- 35
2019-04-14 04:00:00 9.5 29 Oeste 34 Oeste 0 -- -- 32
2019-04-14 03:00:00 9.3 26 Oeste 29 Oeste 0 -- -- 32
2019-04-14 02:00:00 10.1 22 Oeste 26 Oeste 0 -- -- 30
2019-04-14 01:00:00 9.6 20 Oeste 25 Oeste 0 -- -- 30
2019-04-14 00:00:00 11.3 20 Oeste 23 Oeste 0 -- -- 25
2019-04-13 23:00:00 12.6 17 Oeste 19 Oeste 0 -- -- 24
2019-04-13 22:00:00 14.4 13 Oeste 14 Oeste 0 -- -- 19
2019-04-13 21:00:00 15.1 8 Oeste 17 Noroeste 0 -- -- 18
2019-04-13 20:00:00 17.9 15 Noroeste 27 Noroeste 0 -- -- 17
2019-04-13 19:00:00 18.5 17 Norte 29 Noroeste 0 -- -- 17
2019-04-13 18:00:00 19 12 Noroeste 27 Norte 0 -- -- 20
2019-04-13 17:00:00 19.1 16 Noroeste 27 Noroeste 0 -- -- 21
2019-04-13 16:00:00 18.6 12 Noroeste 28 Oeste 0 -- -- 22
2019-04-13 15:00:00 17.7 6 Sudoeste 19 Oeste 0 -- -- 26
2019-04-13 14:00:00 16.9 12 Nordeste 20 Nordeste 0 -- -- 27
2019-04-13 13:00:00 14.8 8 Noroeste 18 Noroeste 0 -- -- 32
2019-04-13 12:00:00 12.8 7 Oeste 21 Oeste 0 -- -- 34
2019-04-13 11:00:00 11 13 Oeste 21 Oeste 0 -- -- 39
2019-04-13 10:00:00 8.6 13 Oeste 17 Oeste 0 -- -- 52
2019-04-13 09:00:00 5.2 15 Oeste 20 Oeste 0 -- -- 69
2019-04-13 08:00:00 4.4 19 Oeste 24 Oeste 0 -- -- 68
2019-04-13 07:00:00 3.7 21 Oeste 25 Oeste 0 -- -- 73
2019-04-13 06:00:00 4.5 23 Oeste 31 Oeste 0 -- -- 70
2019-04-13 05:00:00 4.9 27 Oeste 36 Oeste 0 -- -- 68
2019-04-13 04:00:00 5.7 30 Oeste 34 Oeste 0 -- -- 66
2019-04-13 03:00:00 6.2 25 Oeste 30 Oeste 0 -- -- 64
2019-04-13 02:00:00 7.1 16 Oeste 32 Oeste 0 -- -- 61
2019-04-13 01:00:00 7.3 26 Oeste 37 Oeste 0 -- -- 60
2019-04-13 00:00:00 7.6 30 Oeste 40 Oeste 0 -- -- 59
2019-04-12 23:00:00 9.1 24 Oeste 36 Oeste 0 -- -- 53
2019-04-12 22:00:00 9.8 17 Oeste 30 Oeste 0 -- -- 53
2019-04-12 21:00:00 11 20 Oeste 33 Oeste 0 -- -- 48
2019-04-12 20:00:00 13.6 21 Noroeste 35 Noroeste 0 -- -- 41
2019-04-12 19:00:00 14.9 25 Noroeste 37 Noroeste 0 -- -- 38
2019-04-12 18:00:00 15.3 27 Noroeste 40 Noroeste 0 -- -- 38
2019-04-12 17:00:00 15.2 27 Noroeste 38 Oeste 0 -- -- 41
2019-04-12 16:00:00 14.8 24 Noroeste 40 Oeste 0 -- -- 42
2019-04-12 15:00:00 14.1 21 Oeste 38 Oeste 0 -- -- 48
2019-04-12 14:00:00 12.8 24 Noroeste 40 Noroeste 0 -- -- 51
2019-04-12 13:00:00 10.9 25 Noroeste 42 Oeste 0 -- -- 58
2019-04-12 12:00:00 9.9 29 Oeste 44 Oeste 0 -- -- 65
2019-04-12 11:00:00 8.6 32 Oeste 44 Oeste 0 -- -- 71
2019-04-12 10:00:00 7.3 30 Oeste 37 Oeste 0 -- -- 75
2019-04-12 09:00:00 5.8 28 Oeste 36 Oeste 0 -- -- 82
2019-04-12 08:00:00 4.7 26 Oeste 34 Oeste 0 -- -- 85
2019-04-12 07:00:00 4.5 23 Oeste 29 Oeste 0 -- -- 85
2019-04-12 06:00:00 4.5 19 Oeste 32 Oeste 0 -- -- 85
2019-04-12 05:00:00 4.6 21 Oeste 31 Oeste 0 -- -- 84
2019-04-12 04:00:00 4.8 23 Oeste 35 Oeste 0 -- -- 83
2019-04-12 03:00:00 5.2 27 Oeste 44 Oeste 0 -- -- 80
2019-04-12 02:00:00 5.4 32 Oeste 54 Oeste 0 -- -- 81
2019-04-12 01:00:00 6 44 Oeste 61 Oeste 0 -- -- 74
2019-04-12 00:00:00 6.7 45 Noroeste 61 Noroeste 0 -- -- 69
2019-04-11 23:00:00 6.9 37 Oeste 61 Noroeste 0 -- -- 74
2019-04-11 22:00:00 7.7 44 Noroeste 59 Oeste 0 -- -- 71
2019-04-11 21:00:00 8.3 38 Noroeste 58 Oeste 0 -- -- 67
2019-04-11 20:00:00 9.5 37 Noroeste 64 Oeste 0 -- -- 64
2019-04-11 19:00:00 10.3 44 Noroeste 61 Noroeste 0 -- -- 61
2019-04-11 18:00:00 11 37 Noroeste 54 Noroeste 0 -- -- 58
2019-04-11 17:00:00 11.8 35 Noroeste 54 Oeste 0 -- -- 56
2019-04-11 16:00:00 12 34 Noroeste 58 Noroeste 0 -- -- 54
2019-04-11 15:00:00 11.8 35 Noroeste 55 Noroeste 0 -- -- 55
2019-04-11 14:00:00 11.3 39 Noroeste 57 Oeste 0 -- -- 57
2019-04-11 13:00:00 9.7 40 Noroeste 63 Noroeste 0 -- -- 60
2019-04-11 12:00:00 9.1 40 Noroeste 66 Oeste 0 -- -- 60
2019-04-11 11:00:00 8.2 38 Noroeste 63 Oeste 0 -- -- 66
2019-04-11 10:00:00 7.1 46 Noroeste 63 Noroeste 0 -- -- 70
2019-04-11 09:00:00 6 41 Oeste 63 Noroeste 0 -- -- 74
2019-04-11 08:00:00 5 33 Oeste 55 Noroeste 0 -- -- 79
2019-04-11 07:00:00 5.1 37 Oeste 61 Oeste 0 -- -- 79
2019-04-11 06:00:00 4.8 34 Oeste 51 Oeste 0 -- -- 82
2019-04-11 05:00:00 5.2 32 Oeste 47 Oeste 0 -- -- 80
2019-04-11 04:00:00 5.1 32 Oeste 51 Oeste 0 -- -- 82
2019-04-11 03:00:00 5.5 31 Oeste 48 Oeste 0 -- -- 81
2019-04-11 02:00:00 6 34 Oeste 49 Oeste 0 -- -- 78
2019-04-11 01:00:00 6.6 38 Oeste 57 Oeste 0 -- -- 75
2019-04-11 00:00:00 7.2 40 Noroeste 56 Oeste 0 -- -- 73
2019-04-10 23:00:00 8 39 Oeste 50 Oeste 0 -- -- 70
2019-04-10 22:00:00 9 31 Noroeste 45 Noroeste 0 -- -- 67
2019-04-10 21:00:00 9.5 28 Noroeste 40 Noroeste 0 -- -- 64
2019-04-10 20:00:00 10.7 26 Noroeste 38 Noroeste 0 -- -- 62
2019-04-10 19:00:00 11.2 20 Noroeste 33 Noroeste 0 -- -- 64
2019-04-10 18:00:00 10.7 19 Oeste 30 Oeste 0 -- -- 72
2019-04-10 17:00:00 8.4 17 Oeste 40 Noroeste 1.4 -- -- 79
2019-04-10 16:00:00 12.6 25 Oeste 42 Noroeste 0 -- -- 52
2019-04-10 15:00:00 10.2 28 Noroeste 42 Noroeste 0 -- -- 60
2019-04-10 14:00:00 9.8 31 Noroeste 49 Noroeste 0 -- -- 61
2019-04-10 13:00:00 10 28 Noroeste 44 Noroeste 0 -- -- 63
2019-04-10 12:00:00 9.2 26 Oeste 45 Noroeste 0 -- -- 65
2019-04-10 11:00:00 8.4 32 Oeste 43 Oeste 0 -- -- 70
2019-04-10 10:00:00 7 30 Oeste 46 Oeste 0 -- -- 78
2019-04-10 09:00:00 5.7 29 Oeste 45 Oeste 0 -- -- 82
2019-04-10 08:00:00 5.6 34 Oeste 45 Oeste 0 -- -- 82
2019-04-10 07:00:00 5.4 33 Oeste 43 Oeste 0 -- -- 83
2019-04-10 06:00:00 5.5 32 Oeste 45 Oeste 0 -- -- 82
2019-04-10 05:00:00 5.7 30 Oeste 37 Oeste 0 -- -- 81
2019-04-10 04:00:00 5.9 30 Oeste 44 Oeste 0 -- -- 79
2019-04-10 03:00:00 6.7 44 Oeste 54 Oeste 0 -- -- 78
2019-04-10 02:00:00 6.8 32 Oeste 45 Oeste 0 -- -- 79
2019-04-10 01:00:00 7.1 23 Oeste 41 Oeste 0 -- -- 78
2019-04-10 00:00:00 7.3 33 Oeste 45 Oeste 0 -- -- 75
2019-04-09 23:00:00 6.7 39 Oeste 54 Oeste 0 -- -- 80
2019-04-09 22:00:00 6.6 37 Oeste 54 Oeste 0 -- -- 78
2019-04-09 21:00:00 6.9 44 Oeste 60 Oeste 0 -- -- 77
2019-04-09 20:00:00 7.6 49 Oeste 65 Oeste 0 -- -- 76
2019-04-09 19:00:00 11.9 36 Oeste 51 Oeste 0 -- -- 55
2019-04-09 18:00:00 10.2 33 Oeste 54 Oeste 0 -- -- 65
2019-04-09 17:00:00 13.8 33 Noroeste 44 Oeste 0 -- -- 50
2019-04-09 16:00:00 12.8 32 Oeste 48 Oeste 0 -- -- 48
2019-04-09 15:00:00 14 33 Oeste 48 Oeste 0 -- -- 48
2019-04-09 14:00:00 13 32 Oeste 43 Oeste 0 -- -- 51
2019-04-09 13:00:00 12.1 33 Oeste 48 Oeste 0 -- -- 53
2019-04-09 12:00:00 11 36 Oeste 50 Oeste 0 -- -- 58
2019-04-09 11:00:00 9.6 36 Oeste 50 Oeste 0 -- -- 66
2019-04-09 10:00:00 8.3 35 Oeste 45 Oeste 0 -- -- 69
2019-04-09 09:00:00 6.6 35 Oeste 46 Oeste 0 -- -- 76
2019-04-09 08:00:00 6.2 35 Oeste 46 Oeste 0 -- -- 78
2019-04-09 07:00:00 6.4 30 Oeste 42 Oeste 0 -- -- 76
2019-04-09 06:00:00 5.8 35 Oeste 42 Sudoeste 0 -- -- 78
2019-04-09 05:00:00 6.3 26 Oeste 49 Sudoeste 0 -- -- 80
2019-04-09 04:00:00 6.4 41 Oeste 50 Oeste 0 -- -- 76
2019-04-09 03:00:00 6.4 28 Oeste 36 Oeste 0 -- -- 81
2019-04-09 02:00:00 6.7 19 Oeste 35 Oeste 0 -- -- 82
2019-04-09 01:00:00 7.2 29 Oeste 36 Oeste 0 -- -- 82
2019-04-09 00:00:00 8.3 14 Sudoeste 21 Oeste 0 -- -- 78
2019-04-08 23:00:00 9.4 17 Oeste 29 Oeste 0 -- -- 74
2019-04-08 22:00:00 9.9 26 Oeste 32 Oeste 0 -- -- 74
2019-04-08 21:00:00 10.3 22 Oeste 26 Oeste 0 -- -- 75
2019-04-08 20:00:00 12.8 24 Oeste 32 Oeste 0 -- -- 65
2019-04-08 19:00:00 14.5 20 Oeste 28 Oeste 0 -- -- 64
2019-04-08 18:00:00 13.5 5 Noroeste 36 Oeste 3 -- -- 80
2019-04-08 17:00:00 13 6 Nordeste 23 Nordeste 0.2 -- -- 77
2019-04-08 16:00:00 12.1 12 Nordeste 23 Nordeste 0.8 -- -- 83
2019-04-08 15:00:00 13.5 9 Nordeste 26 Oeste 0 -- -- 72
2019-04-08 14:00:00 12.4 22 Oeste 36 Oeste 0 -- -- 71
2019-04-08 13:00:00 12.5 20 Oeste 30 Sudoeste 0 -- -- 74
2019-04-08 12:00:00 10.6 23 Oeste 42 Oeste 0 -- -- 80
2019-04-08 11:00:00 11 23 Oeste 39 Oeste 0 -- -- 77
2019-04-08 10:00:00 9.8 21 Oeste 26 Oeste 0 -- -- 79
2019-04-08 09:00:00 7.7 15 Oeste 23 Oeste 0 -- -- 85
2019-04-08 08:00:00 5.7 12 Sudoeste 14 Sudoeste 0 -- -- 93
2019-04-08 07:00:00 5.9 6 Sudoeste 16 Sur 0.2 -- -- 92
2019-04-08 06:00:00 6 13 Sur 17 Sur 0.2 -- -- 90
2019-04-08 05:00:00 6 11 Sur 13 Sur 0.6 -- -- 89
2019-04-08 04:00:00 6.2 10 Sudoeste 31 Sudoeste 0.4 -- -- 86
2019-04-08 03:00:00 7.2 31 Sudoeste 41 Sudoeste 0.2 -- -- 77
2019-04-08 02:00:00 8.1 26 Sudoeste 31 Oeste 0 -- -- 60
2019-04-08 01:00:00 7.5 19 Oeste 29 Oeste 0 -- -- 61
2019-04-08 00:00:00 7.8 11 Sudoeste 16 Sur 0 -- -- 57
2019-04-07 23:00:00 8 10 Sur 14 Sur 0 -- -- 56
2019-04-07 22:00:00 8.9 9 Oeste 21 Oeste 0 -- -- 50
2019-04-07 21:00:00 9 17 Oeste 30 Noroeste 0 -- -- 48
2019-04-07 20:00:00 10.6 25 Oeste 45 Oeste 0 -- -- 45
2019-04-07 19:00:00 12.7 29 Oeste 43 Oeste 0 -- -- 43
2019-04-07 18:00:00 12.5 28 Oeste 48 Oeste 0 -- -- 44
2019-04-07 17:00:00 11.8 37 Oeste 52 Oeste 0 -- -- 48
2019-04-07 16:00:00 10.8 39 Oeste 54 Oeste 0 -- -- 50
2019-04-07 15:00:00 9.3 38 Oeste 52 Oeste 0 -- -- 55
2019-04-07 14:00:00 10 37 Oeste 60 Oeste 0 -- -- 52
2019-04-07 13:00:00 9.1 35 Noroeste 58 Oeste 0 -- -- 55
2019-04-07 12:00:00 8.1 38 Oeste 57 Oeste 0 -- -- 59
2019-04-07 11:00:00 6.8 40 Oeste 50 Oeste 0 -- -- 66
2019-04-07 10:00:00 5.5 33 Oeste 42 Oeste 0 -- -- 72
2019-04-07 09:00:00 4.6 31 Oeste 50 Oeste 0 -- -- 77
2019-04-07 08:00:00 4.2 35 Oeste 47 Oeste 0 -- -- 77
2019-04-07 07:00:00 4.5 26 Oeste 41 Oeste 0 -- -- 76
2019-04-07 06:00:00 4.4 19 Oeste 30 Oeste 0 -- -- 78
2019-04-07 05:00:00 4.6 25 Oeste 40 Sudoeste 0 -- -- 76
2019-04-07 04:00:00 4.7 32 Oeste 48 Oeste 0 -- -- 76
2019-04-07 03:00:00 4.2 32 Oeste 60 Oeste 0 -- -- 81
2019-04-07 02:00:00 4.6 32 Oeste 47 Sudoeste 0 -- -- 77
2019-04-07 01:00:00 4.9 34 Sudoeste 44 Sudoeste 0 -- -- 76
2019-04-07 00:00:00 4.7 30 Sudoeste 56 Sudoeste 0 -- -- 82
2019-04-06 23:00:00 5.3 53 Sudoeste 78 Sudoeste 0 -- -- 77
2019-04-06 22:00:00 5.3 31 Sudoeste 42 Oeste 0 -- -- 73
2019-04-06 21:00:00 5.5 21 Sudoeste 59 Sudoeste 0.2 -- -- 75
2019-04-06 20:00:00 6.5 41 Oeste 52 Oeste 0 -- -- 71
2019-04-06 19:00:00 9 31 Sudoeste 40 Sudoeste 0 -- -- 56
2019-04-06 18:00:00 8.3 20 Sudoeste 32 Sudoeste 0.4 -- -- 69
2019-04-06 17:00:00 9.6 30 Oeste 42 Oeste 0 -- -- 55
2019-04-06 16:00:00 11 32 Oeste 49 Oeste 0 -- -- 45
2019-04-06 15:00:00 9.9 14 Oeste 41 Oeste 0 -- -- 53
2019-04-06 14:00:00 8.5 33 Oeste 50 Oeste 0 -- -- 53
2019-04-06 13:00:00 9.5 40 Oeste 65 Sudoeste 0 -- -- 51
2019-04-06 12:00:00 8.4 36 Oeste 50 Oeste 0 -- -- 57
2019-04-06 11:00:00 6.4 24 Oeste 67 Sudoeste 0 -- -- 61
2019-04-06 10:00:00 6 46 Sudoeste 60 Sudoeste 0 -- -- 64
2019-04-06 09:00:00 4.7 46 Oeste 57 Oeste 0 -- -- 71
2019-04-06 08:00:00 3.9 45 Oeste 60 Oeste 0 -- -- 72
2019-04-06 07:00:00 3.8 40 Oeste 54 Oeste 0 -- -- 75
2019-04-06 06:00:00 3.9 38 Oeste 53 Oeste 0 -- -- 75
2019-04-06 05:00:00 4.1 33 Oeste 51 Oeste 0 -- -- 73
2019-04-06 04:00:00 4.6 35 Oeste 49 Oeste 0 -- -- 75
2019-04-06 03:00:00 4.6 35 Oeste 51 Oeste 0 -- -- 76
2019-04-06 02:00:00 4.4 33 Oeste 46 Oeste 0 -- -- 77
2019-04-06 01:00:00 4.2 37 Oeste 62 Oeste 0 -- -- 80
2019-04-06 00:00:00 4.4 47 Oeste 60 Oeste 0 -- -- 78
2019-04-05 23:00:00 5.2 50 Oeste 67 Oeste 0 -- -- 81
2019-04-05 22:00:00 6.9 8 Noroeste 17 Nordeste 0.2 -- -- 95
2019-04-05 21:00:00 7.5 9 Nordeste 21 Este 0 -- -- 94
2019-04-05 20:00:00 8 4 Sudeste 19 Sudoeste 0 -- -- 68
2019-04-05 19:00:00 8.2 14 Sur 23 Sudoeste 0 -- -- 67
2019-04-05 18:00:00 8.6 5 Oeste 15 Noroeste 0 -- -- 82
2019-04-05 17:00:00 8.3 6 Norte 22 Sudoeste 1.4 -- -- 81
2019-04-05 16:00:00 9 8 Sudoeste 32 Sudoeste 1.2 -- -- 74
2019-04-05 15:00:00 11.8 18 Este 26 Este 0 -- -- 51
2019-04-05 14:00:00 11.8 18 Este 29 Este 0 -- -- 50
2019-04-05 13:00:00 11.4 19 Oeste 30 Sudoeste 0 -- -- 50
2019-04-05 12:00:00 11.1 7 Sudoeste 14 Sudoeste 0 -- -- 49
2019-04-05 11:00:00 9.3 6 Nordeste 11 Este 0 -- -- 71
2019-04-05 10:00:00 8.4 3 Sur 21 Sudoeste 0 -- -- 62
2019-04-05 09:00:00 7.8 12 Sudoeste 27 Sudoeste 0 -- -- 64
2019-04-05 08:00:00 8.2 27 Sudoeste 40 Sudoeste 0 -- -- 62
2019-04-05 07:00:00 7.9 28 Sudoeste 39 Sudoeste 0 -- -- 64
2019-04-05 06:00:00 6.5 21 Sudoeste 26 Sudoeste 0 -- -- 68
2019-04-05 05:00:00 6.8 8 Sur 27 Sur 0 -- -- 65
2019-04-05 04:00:00 5.2 4 Oeste 16 Sur 0 -- -- 72
2019-04-05 03:00:00 5.7 10 Sur 23 Sur 0 -- -- 66
2019-04-05 02:00:00 5.1 18 Sur 22 Sur 0 -- -- 67
2019-04-05 01:00:00 4.3 14 Sur 17 Sur 0 -- -- 77
2019-04-05 00:00:00 4.9 13 Sur 25 Sur 0 -- -- 75
2019-04-04 23:00:00 6.6 8 Sudeste 23 Sudeste 0 -- -- 65
2019-04-04 22:00:00 7.2 17 Este 23 Este 0 -- -- 54
2019-04-04 21:00:00 8 19 Este 23 Este 0 -- -- 51
2019-04-04 20:00:00 9.1 18 Este 27 Este 0 -- -- 46
2019-04-04 19:00:00 10.1 17 Nordeste 23 Este 0 -- -- 43
2019-04-04 18:00:00 12.4 7 Oeste 27 Oeste 0 -- -- 33
2019-04-04 17:00:00 11.7 11 Oeste 25 Noroeste 0 -- -- 38
2019-04-04 16:00:00 10.5 13 Oeste 34 Oeste 0 -- -- 41
2019-04-04 15:00:00 9.1 20 Oeste 37 Oeste 0 -- -- 42
2019-04-04 14:00:00 8.5 24 Oeste 33 Oeste 0 -- -- 48
2019-04-04 13:00:00 7.1 15 Oeste 31 Oeste 0 -- -- 53
2019-04-04 12:00:00 5.8 24 Oeste 32 Oeste 0 -- -- 58
2019-04-04 11:00:00 4.2 19 Oeste 29 Oeste 0 -- -- 65
2019-04-04 10:00:00 2.3 18 Oeste 27 Oeste 0 -- -- 77
2019-04-04 09:00:00 0.3 20 Oeste 26 Oeste 0 -- -- 91
2019-04-04 08:00:00 -0.5 19 Oeste 21 Oeste 0 -- -- 91
2019-04-04 07:00:00 -0.5 16 Oeste 19 Oeste 0 -- -- 90
2019-04-04 06:00:00 0.4 12 Oeste 14 Oeste 0 -- -- 84
2019-04-04 05:00:00 0.3 13 Oeste 22 Oeste 0 -- -- 84
2019-04-04 04:00:00 0.7 21 Oeste 27 Oeste 0 -- -- 83
2019-04-04 03:00:00 1.1 18 Oeste 31 Noroeste 0 -- -- 87
2019-04-04 02:00:00 1.9 18 Oeste 29 Noroeste 0 -- -- 86
2019-04-04 01:00:00 1.7 15 Oeste 26 Oeste 0 -- -- 90
2019-04-04 00:00:00 2.1 21 Oeste 26 Oeste 0 -- -- 90
2019-04-03 23:00:00 2.5 20 Oeste 33 Oeste 0 -- -- 88
2019-04-03 22:00:00 2.6 28 Oeste 45 Noroeste 0 -- -- 90
2019-04-03 21:00:00 2.6 28 Noroeste 50 Noroeste 0.6 -- -- 93
2019-04-03 20:00:00 4.4 16 Oeste 22 Oeste 0 -- -- 90
2019-04-03 19:00:00 4.2 8 Oeste 17 Noroeste 0.2 -- -- 91
2019-04-03 18:00:00 4.4 13 Noroeste 26 Noroeste 0 -- -- 88
2019-04-03 17:00:00 5 21 Noroeste 37 Noroeste 0 -- -- 86
2019-04-03 16:00:00 5.7 30 Noroeste 39 Noroeste 0 -- -- 88
2019-04-03 15:00:00 6.9 20 Norte 32 Noroeste 0 -- -- 88
2019-04-03 14:00:00 9 16 Norte 24 Norte 0 -- -- 80
2019-04-03 13:00:00 9.9 13 Norte 22 Norte 0 -- -- 80
2019-04-03 12:00:00 8.7 11 Norte 19 Norte 0 -- -- 83
2019-04-03 11:00:00 7.9 11 Norte 19 Norte 0 -- -- 84
2019-04-03 10:00:00 7.3 8 Noroeste 13 Noroeste 0 -- -- 88
2019-04-03 09:00:00 7.2 9 Este 12 Nordeste 0 -- -- 88
2019-04-03 08:00:00 7.7 4 Sudeste 9 Este 0 -- -- 85
2019-04-03 07:00:00 8 4 Nordeste 17 Oeste 0 -- -- 80
2019-04-03 06:00:00 7.8 8 Sudoeste 12 Sudoeste 0 -- -- 82
2019-04-03 05:00:00 8.7 8 Sur 11 Sur 0 -- -- 79
2019-04-03 04:00:00 9.2 0 Calma 22 Oeste 0 -- -- 76
2019-04-03 03:00:00 9.3 18 Oeste 32 Oeste 0 -- -- 78
2019-04-03 02:00:00 9.4 25 Oeste 32 Sudoeste 0 -- -- 76
2019-04-03 01:00:00 8.9 15 Sudoeste 21 Sudoeste 0 -- -- 81
2019-04-03 00:00:00 8.3 16 Sudoeste 26 Oeste 0 -- -- 85
2019-04-02 23:00:00 8.6 24 Oeste 27 Oeste 0 -- -- 86
2019-04-02 22:00:00 9.1 13 Sudoeste 24 Oeste 0 -- -- 84
2019-04-02 21:00:00 9.6 19 Sudoeste 28 Sudoeste 0 -- -- 81
2019-04-02 20:00:00 9.2 20 Sudoeste 27 Sudoeste 0 -- -- 89
2019-04-02 19:00:00 9.9 21 Oeste 44 Noroeste 1.4 -- -- 82
2019-04-02 18:00:00 13.5 6 Norte 18 Norte 0 -- -- 65
2019-04-02 17:00:00 14.3 11 Norte 19 Nordeste 0 -- -- 66
2019-04-02 16:00:00 14.6 12 Nordeste 23 Noroeste 0 -- -- 67
2019-04-02 15:00:00 15 12 Norte 22 Noroeste 0 -- -- 70
2019-04-02 14:00:00 13.6 9 Noroeste 19 Norte 0 -- -- 76
2019-04-02 13:00:00 12.4 10 Noroeste 15 Oeste 0 -- -- 80
2019-04-02 12:00:00 11.1 10 Oeste 16 Oeste 0 -- -- 81
2019-04-02 11:00:00 10.5 12 Oeste 20 Oeste 0 -- -- 84
2019-04-02 10:00:00 10.1 13 Oeste 21 Oeste 0 -- -- 86
2019-04-02 09:00:00 8.1 14 Oeste 18 Oeste 0 -- -- 91
2019-04-02 08:00:00 7.8 15 Oeste 22 Oeste 0 -- -- 91
2019-04-02 07:00:00 7.9 18 Oeste 20 Oeste 0 -- -- 94
2019-04-02 06:00:00 8 17 Oeste 21 Oeste 0 -- -- 93
2019-04-02 05:00:00 8.6 13 Oeste 18 Sudoeste 0 -- -- 89
2019-04-02 04:00:00 8.7 6 Oeste 16 Oeste 0 -- -- 91
2019-04-02 03:00:00 8.9 12 Sudoeste 14 Oeste 0 -- -- 95
2019-04-02 02:00:00 8.7 3 Sudoeste 6 Sur 0 -- -- 95
2019-04-02 01:00:00 9.5 2 Sur 6 Sudoeste 0 -- -- 96
2019-04-02 00:00:00 9.5 6 Sur 9 Sur 0 -- -- 95
2019-04-01 23:00:00 10 4 Oeste 6 Este 0 -- -- 93
2019-04-01 22:00:00 10.4 4 Nordeste 7 Este 0 -- -- 93
2019-04-01 21:00:00 10.8 3 Noroeste 9 Sur 0 -- -- 90
2019-04-01 20:00:00 11 7 Sur 9 Sudeste 0 -- -- 79
2019-04-01 19:00:00 11.5 6 Sudeste 14 Este 0 -- -- 73
2019-04-01 18:00:00 12.2 7 Sudeste 21 Este 0 -- -- 71
2019-04-01 17:00:00 12 10 Sudeste 24 Este 0 -- -- 74
2019-04-01 16:00:00 10.8 15 Este 22 Este 0 -- -- 90
2019-04-01 15:00:00 10 14 Este 20 Este 0 -- -- 95
2019-04-01 14:00:00 8.9 10 Este 15 Este 0.2 -- -- 97
2019-04-01 13:00:00 8.2 8 Este 12 Este 0.8 -- -- 98
2019-04-01 12:00:00 7.7 3 Sur 7 Sur 1.2 -- -- 99
2019-04-01 11:00:00 7.3 3 Sudeste 6 Este 0.4 -- -- 99
2019-04-01 10:00:00 6.4 3 Sur 5 Sur 0.6 -- -- 99
2019-04-01 09:00:00 5.8 3 Este 6 Este 0.4 -- -- 99
2019-04-01 08:00:00 5.7 3 Este 6 Este 1.2 -- -- 99
2019-04-01 07:00:00 5.7 5 Nordeste 12 Nordeste 0.4 -- -- 99
2019-04-01 06:00:00 5.7 9 Nordeste 14 Nordeste 0.4 -- -- 99
2019-04-01 05:00:00 5.9 9 Nordeste 15 Nordeste 0.2 -- -- 99
2019-04-01 04:00:00 5.9 13 Nordeste 14 Nordeste 0.6 -- -- 98
2019-04-01 03:00:00 6.3 8 Nordeste 12 Nordeste 0.2 -- -- 98
2019-04-01 02:00:00 6.5 6 Nordeste 11 Nordeste 0.4 -- -- 98
2019-04-01 01:00:00 6.7 9 Nordeste 10 Nordeste 0.6 -- -- 98
2019-04-01 00:00:00 6.9 8 Este 12 Este 0 -- -- 98
2019-03-31 23:00:00 6.9 10 Nordeste 13 Este 0.4 -- -- 97
2019-03-31 22:00:00 6.9 8 Este 10 Este 0.6 -- -- 97
2019-03-31 21:00:00 6.8 5 Este 9 Este 0.8 -- -- 97
2019-03-31 20:00:00 6.8 9 Este 12 Este 1 -- -- 97
2019-03-31 19:00:00 6.7 9 Este 13 Nordeste 1.2 -- -- 96
2019-03-31 18:00:00 6.6 12 Nordeste 16 Nordeste 2 -- -- 95
2019-03-31 17:00:00 6.9 12 Nordeste 15 Este 1 -- -- 92
2019-03-31 16:00:00 7.4 10 Nordeste 14 Este 0 -- -- 87
2019-03-31 15:00:00 7.3 12 Este 17 Este 0.2 -- -- 85
2019-03-31 14:00:00 7.5 9 Este 14 Nordeste 0 -- -- 78
2019-03-31 13:00:00 6.8 11 Nordeste 13 Nordeste 0 -- -- 84
2019-03-31 12:00:00 6 7 Nordeste 15 Nordeste 0 -- -- 90
2019-03-31 11:00:00 5.8 4 Nordeste 8 Nordeste 0 -- -- 91
2019-03-31 10:00:00 5.8 4 Nordeste 8 Oeste 0 -- -- 87
2019-03-31 09:00:00 4.5 2 Oeste 6 Oeste 0 -- -- 85
2019-03-31 08:00:00 4 2 Noroeste 11 Oeste 0 -- -- 86
2019-03-31 07:00:00 4.6 2 Noroeste 5 Noroeste 0 -- -- 85
2019-03-31 06:00:00 4.9 2 Nordeste 5 Sur 0 -- -- 85
2019-03-31 05:00:00 5.4 3 Sudeste 8 Nordeste 0 -- -- 80
2019-03-31 03:00:00 6.1 9 Este 10 Nordeste 0 -- -- 79
2019-03-31 01:00:00 6.9 5 Sudoeste 12 Sudoeste 0 -- -- 76
2019-03-31 00:00:00 7.2 9 Sudoeste 21 Sur 0 -- -- 76
2019-03-30 23:00:00 8.6 13 Sur 28 Sur 0 -- -- 71
2019-03-30 22:00:00 9 16 Sudeste 26 Sur 0 -- -- 70
2019-03-30 21:00:00 9.4 13 Sudeste 22 Sudeste 0 -- -- 68
2019-03-30 20:00:00 10.6 13 Sudeste 27 Nordeste 0 -- -- 64
2019-03-30 19:00:00 11.9 24 Este 40 Nordeste 0 -- -- 52
2019-03-30 18:00:00 13.4 31 Este 40 Este 0 -- -- 46
2019-03-30 17:00:00 14.1 25 Este 39 Este 0 -- -- 40
2019-03-30 16:00:00 14.7 23 Nordeste 32 Este 0 -- -- 37
2019-03-30 15:00:00 14.2 20 Este 30 Este 0 -- -- 36
2019-03-30 14:00:00 13.9 22 Este 30 Nordeste 0 -- -- 37
2019-03-30 13:00:00 13.3 19 Este 32 Este 0 -- -- 36
2019-03-30 12:00:00 12.7 21 Este 30 Este 0 -- -- 35
2019-03-30 11:00:00 11.6 9 Este 18 Nordeste 0 -- -- 42
2019-03-30 10:00:00 10.5 10 Nordeste 18 Este 0 -- -- 47
2019-03-30 09:00:00 6.5 5 Oeste 12 Sudoeste 0 -- -- 58
2019-03-30 08:00:00 3.6 10 Sudoeste 17 Oeste 0 -- -- 66
2019-03-30 07:00:00 2.9 12 Oeste 15 Oeste 0 -- -- 69
2019-03-30 06:00:00 5.1 8 Sudoeste 12 Sudoeste 0 -- -- 57
2019-03-30 05:00:00 5.2 8 Sudoeste 12 Sudoeste 0 -- -- 57
2019-03-30 04:00:00 6.3 4 Sur 6 Sur 0 -- -- 53
2019-03-30 03:00:00 6.5 0 Calma 13 Sudeste 0 -- -- 53
2019-03-30 02:00:00 6.2 7 Sur 17 Sur 0 -- -- 55
2019-03-30 01:00:00 6.9 13 Sur 22 Sur 0 -- -- 54
2019-03-30 00:00:00 8.1 13 Sur 28 Sur 0 -- -- 51
2019-03-29 23:00:00 8.4 17 Sur 30 Sur 0 -- -- 53
2019-03-29 22:00:00 8.3 13 Sur 25 Sudeste 0 -- -- 55
2019-03-29 21:00:00 9 17 Sudeste 30 Sudeste 0 -- -- 52
2019-03-29 20:00:00 9.8 14 Este 29 Este 0 -- -- 50
2019-03-29 19:00:00 11.5 17 Este 36 Este 0 -- -- 47
2019-03-29 18:00:00 12.8 26 Este 44 Sudeste 0 -- -- 43
2019-03-29 17:00:00 13.9 24 Este 44 Este 0 -- -- 41
2019-03-29 16:00:00 14.6 23 Este 44 Este 0 -- -- 39
2019-03-29 15:00:00 14.3 24 Este 43 Este 0 -- -- 36
2019-03-29 14:00:00 15 23 Este 45 Este 0 -- -- 35
2019-03-29 13:00:00 14.4 24 Este 41 Este 0 -- -- 35
2019-03-29 12:00:00 14.1 23 Este 40 Este 0 -- -- 35
2019-03-29 11:00:00 13.2 15 Este 25 Este 0 -- -- 38
2019-03-29 10:00:00 11.7 11 Este 17 Nordeste 0 -- -- 43
2019-03-29 09:00:00 7.9 5 Oeste 13 Oeste 0 -- -- 53
2019-03-29 08:00:00 6.1 11 Sudoeste 15 Sudoeste 0 -- -- 58
2019-03-29 07:00:00 6.4 2 Noroeste 12 Oeste 0 -- -- 54
2019-03-29 06:00:00 6.3 6 Oeste 15 Oeste 0 -- -- 52
2019-03-29 05:00:00 6.1 11 Oeste 13 Oeste 0 -- -- 57
2019-03-29 04:00:00 6.2 9 Oeste 15 Oeste 0 -- -- 59
2019-03-29 03:00:00 6.2 14 Sudoeste 18 Sudoeste 0 -- -- 58
2019-03-29 02:00:00 7.2 14 Oeste 18 Oeste 0 -- -- 54
2019-03-29 01:00:00 7.9 12 Sudoeste 19 Sur 0 -- -- 51
2019-03-29 00:00:00 8.1 16 Sur 19 Sur 0 -- -- 50
2019-03-28 23:00:00 9.2 17 Sur 22 Sur 0 -- -- 47
2019-03-28 22:00:00 10.5 16 Sur 21 Sur 0 -- -- 43
2019-03-28 21:00:00 11.5 12 Sur 16 Sur 0 -- -- 41
2019-03-28 20:00:00 12.1 10 Este 14 Este 0 -- -- 43
2019-03-28 19:00:00 13.2 9 Nordeste 15 Nordeste 0 -- -- 41
2019-03-28 18:00:00 14 8 Nordeste 20 Nordeste 0 -- -- 38
2019-03-28 17:00:00 14.5 11 Nordeste 22 Nordeste 0 -- -- 38
2019-03-28 16:00:00 15 13 Nordeste 23 Este 0 -- -- 36
2019-03-28 15:00:00 14.6 13 Nordeste 23 Este 0 -- -- 37
2019-03-28 14:00:00 14.7 9 Norte 20 Nordeste 0 -- -- 39
2019-03-28 13:00:00 13.4 13 Nordeste 20 Nordeste 0 -- -- 43
2019-03-28 12:00:00 12.7 5 Noroeste 13 Noroeste 0 -- -- 42
2019-03-28 11:00:00 10.2 6 Oeste 15 Noroeste 0 -- -- 47
2019-03-28 10:00:00 8.2 8 Noroeste 17 Oeste 0 -- -- 56
2019-03-28 09:00:00 6.2 9 Oeste 15 Oeste 0 -- -- 63
2019-03-28 08:00:00 3.9 10 Sudoeste 13 Sudoeste 0 -- -- 66
2019-03-28 07:00:00 3.2 12 Oeste 21 Oeste 0 -- -- 65
2019-03-28 06:00:00 3.7 13 Sudoeste 22 Oeste 0 -- -- 63
2019-03-28 05:00:00 3.7 20 Oeste 24 Oeste 0 -- -- 62
2019-03-28 04:00:00 4 20 Oeste 24 Oeste 0 -- -- 59
2019-03-28 03:00:00 5.3 17 Oeste 28 Oeste 0 -- -- 53
2019-03-28 02:00:00 5.7 20 Oeste 25 Oeste 0 -- -- 50
2019-03-28 01:00:00 6.1 15 Sudoeste 26 Oeste 0 -- -- 47
2019-03-28 00:00:00 7 17 Oeste 25 Oeste 0 -- -- 44
2019-03-27 23:00:00 8.6 21 Oeste 26 Noroeste 0 -- -- 37
2019-03-27 22:00:00 10.4 21 Noroeste 30 Noroeste 0 -- -- 33
2019-03-27 21:00:00 12.6 6 Este 10 Este 0 -- -- 27
2019-03-27 20:00:00 12.7 7 Este 9 Norte 0 -- -- 28
2019-03-27 19:00:00 13.7 6 Norte 13 Nordeste 0 -- -- 26
2019-03-27 18:00:00 14.3 6 Nordeste 18 Nordeste 0 -- -- 24
2019-03-27 17:00:00 14.7 11 Nordeste 21 Nordeste 0 -- -- 24
2019-03-27 16:00:00 15 12 Nordeste 21 Nordeste 0 -- -- 24
2019-03-27 15:00:00 14.7 15 Nordeste 24 Nordeste 0 -- -- 27
2019-03-27 14:00:00 14.8 13 Nordeste 23 Nordeste 0 -- -- 34
2019-03-27 13:00:00 14.1 8 Noroeste 22 Noroeste 0 -- -- 39
2019-03-27 12:00:00 12.1 13 Oeste 24 Oeste 0 -- -- 46
2019-03-27 11:00:00 10.1 18 Oeste 30 Oeste 0 -- -- 43
2019-03-27 10:00:00 7.8 24 Oeste 39 Oeste 0 -- -- 49
2019-03-27 09:00:00 5.8 32 Oeste 40 Oeste 0 -- -- 51
2019-03-27 08:00:00 3.1 19 Oeste 26 Oeste 0 -- -- 58
2019-03-27 07:00:00 3 16 Oeste 21 Oeste 0 -- -- 57
2019-03-27 06:00:00 2.5 18 Sudoeste 23 Sudoeste 0 -- -- 58
2019-03-27 05:00:00 3.2 18 Sudoeste 22 Oeste 0 -- -- 56
2019-03-27 04:00:00 3.9 18 Oeste 21 Oeste 0 -- -- 53
2019-03-27 03:00:00 3.7 18 Oeste 22 Oeste 0 -- -- 54
2019-03-27 02:00:00 4.7 17 Oeste 22 Oeste 0 -- -- 50
2019-03-27 01:00:00 5.3 17 Oeste 25 Oeste 0 -- -- 48
2019-03-27 00:00:00 6.1 18 Oeste 24 Oeste 0 -- -- 46
2019-03-26 23:00:00 7.6 15 Oeste 19 Oeste 0 -- -- 39
2019-03-26 22:00:00 10 13 Norte 23 Norte 0 -- -- 31
2019-03-26 21:00:00 12.2 6 Este 9 Este 0 -- -- 29
2019-03-26 20:00:00 12.9 5 Nordeste 10 Norte 0 -- -- 28
2019-03-26 19:00:00 13.5 7 Norte 17 Nordeste 0 -- -- 25
2019-03-26 18:00:00 14.6 12 Norte 21 Noroeste 0 -- -- 23
2019-03-26 17:00:00 15.1 10 Norte 21 Nordeste 0 -- -- 22
2019-03-26 16:00:00 15.1 9 Norte 19 Nordeste 0 -- -- 25
2019-03-26 15:00:00 14.2 10 Nordeste 22 Este 0 -- -- 27
2019-03-26 14:00:00 14.5 7 Nordeste 18 Nordeste 0 -- -- 31
2019-03-26 13:00:00 13.6 9 Nordeste 22 Nordeste 0 -- -- 39
2019-03-26 12:00:00 11.4 6 Oeste 24 Oeste 0 -- -- 48
2019-03-26 11:00:00 9.3 18 Oeste 28 Oeste 0 -- -- 53
2019-03-26 10:00:00 7.2 18 Oeste 26 Oeste 0 -- -- 60
2019-03-26 09:00:00 5.5 17 Oeste 24 Oeste 0 -- -- 68
2019-03-26 08:00:00 3.5 14 Oeste 20 Oeste 0 -- -- 77
2019-03-26 07:00:00 2.7 17 Oeste 20 Oeste 0 -- -- 81
2019-03-26 06:00:00 3.2 18 Oeste 29 Oeste 0 -- -- 79
2019-03-26 05:00:00 3.7 22 Oeste 30 Oeste 0 -- -- 79
2019-03-26 04:00:00 3.9 26 Oeste 34 Oeste 0 -- -- 78
2019-03-26 03:00:00 4.1 19 Oeste 36 Oeste 0 -- -- 75
2019-03-26 02:00:00 4.2 30 Oeste 42 Oeste 0 -- -- 74
2019-03-26 01:00:00 4.6 36 Oeste 43 Oeste 0 -- -- 72
2019-03-26 00:00:00 5 30 Oeste 41 Oeste 0 -- -- 71
2019-03-25 23:00:00 5.7 32 Oeste 44 Oeste 0 -- -- 67
2019-03-25 22:00:00 6.9 30 Oeste 36 Oeste 0 -- -- 61
2019-03-25 21:00:00 8.3 32 Oeste 47 Oeste 0 -- -- 55
2019-03-25 20:00:00 9.9 32 Noroeste 46 Noroeste 0 -- -- 47
2019-03-25 19:00:00 12.2 23 Noroeste 36 Noroeste 0 -- -- 41
2019-03-25 18:00:00 14.1 25 Noroeste 37 Noroeste 0 -- -- 35
2019-03-25 17:00:00 15.2 27 Noroeste 41 Noroeste 0 -- -- 33
2019-03-25 16:00:00 15.6 25 Noroeste 40 Noroeste 0 -- -- 36
2019-03-25 15:00:00 15.7 29 Noroeste 42 Noroeste 0 -- -- 37
2019-03-25 14:00:00 15.3 20 Noroeste 40 Noroeste 0 -- -- 41
2019-03-25 13:00:00 14.3 24 Noroeste 39 Noroeste 0 -- -- 46
2019-03-25 12:00:00 12.9 23 Noroeste 40 Noroeste 0 -- -- 52
2019-03-25 11:00:00 11.8 26 Oeste 43 Oeste 0 -- -- 57
2019-03-25 10:00:00 10.2 31 Oeste 41 Oeste 0 -- -- 59
2019-03-25 09:00:00 9.1 22 Oeste 30 Oeste 0 -- -- 55
2019-03-25 08:00:00 7.5 14 Oeste 25 Oeste 0 -- -- 58
2019-03-25 07:00:00 7.3 21 Oeste 30 Oeste 0 -- -- 59
2019-03-25 06:00:00 7.2 25 Oeste 32 Oeste 0 -- -- 60
2019-03-25 05:00:00 7.5 28 Oeste 33 Oeste 0 -- -- 60
2019-03-25 04:00:00 8 27 Oeste 34 Oeste 0 -- -- 59
2019-03-25 03:00:00 8.7 21 Oeste 33 Oeste 0 -- -- 58
2019-03-25 02:00:00 9.5 15 Oeste 27 Oeste 0 -- -- 55
2019-03-25 01:00:00 9.4 23 Oeste 27 Oeste 0 -- -- 48
2019-03-25 00:00:00 10.3 23 Oeste 28 Oeste 0 -- -- 42
2019-03-24 23:00:00 12 22 Oeste 35 Oeste 0 -- -- 38
2019-03-24 22:00:00 13.7 14 Sudoeste 17 Sur 0 -- -- 34
2019-03-24 21:00:00 15.7 8 Sudeste 14 Sur 0 -- -- 28
2019-03-24 20:00:00 16 7 Este 15 Nordeste 0 -- -- 28
2019-03-24 19:00:00 16.7 13 Nordeste 17 Nordeste 0 -- -- 28
2019-03-24 18:00:00 17.9 11 Nordeste 23 Nordeste 0 -- -- 26
2019-03-24 17:00:00 18.5 12 Nordeste 26 Este 0 -- -- 25
2019-03-24 16:00:00 19.3 8 Nordeste 22 Nordeste 0 -- -- 25
2019-03-24 15:00:00 19.1 11 Nordeste 27 Este 0 -- -- 25
2019-03-24 14:00:00 19 11 Nordeste 29 Este 0 -- -- 26
2019-03-24 13:00:00 18.4 8 Nordeste 21 Nordeste 0 -- -- 26
2019-03-24 12:00:00 17.6 9 Nordeste 17 Este 0 -- -- 28
2019-03-24 11:00:00 16.6 6 Este 13 Nordeste 0 -- -- 33
2019-03-24 10:00:00 13 9 Oeste 14 Oeste 0 -- -- 38
2019-03-24 09:00:00 9.4 10 Oeste 17 Oeste 0 -- -- 42
2019-03-24 08:00:00 7.6 13 Oeste 18 Oeste 0 -- -- 45
2019-03-24 07:00:00 8 15 Oeste 24 Oeste 0 -- -- 44
2019-03-24 06:00:00 8.2 16 Oeste 22 Oeste 0 -- -- 44
2019-03-24 05:00:00 8.1 16 Oeste 26 Oeste 0 -- -- 46
2019-03-24 04:00:00 8.2 18 Oeste 22 Oeste 0 -- -- 48
2019-03-24 03:00:00 8.6 17 Oeste 20 Oeste 0 -- -- 49
2019-03-24 02:00:00 9.4 14 Oeste 20 Oeste 0 -- -- 47
2019-03-24 01:00:00 10.8 13 Oeste 17 Oeste 0 -- -- 43
2019-03-24 00:00:00 10.6 14 Oeste 18 Oeste 0 -- -- 44
2019-03-23 23:00:00 11.4 10 Sudoeste 15 Sudoeste 0 -- -- 42
2019-03-23 22:00:00 11.9 12 Sudoeste 15 Sur 0 -- -- 41
2019-03-23 21:00:00 13.5 11 Sur 18 Sur 0 -- -- 38
2019-03-23 20:00:00 14.9 11 Sur 21 Sudeste 0 -- -- 35
2019-03-23 19:00:00 15.4 15 Este 24 Nordeste 0 -- -- 37
2019-03-23 18:00:00 16.5 18 Nordeste 27 Este 0 -- -- 34
2019-03-23 17:00:00 16.9 18 Nordeste 33 Nordeste 0 -- -- 35
2019-03-23 16:00:00 16.9 18 Nordeste 37 Nordeste 0 -- -- 35
2019-03-23 15:00:00 16.9 20 Nordeste 30 Nordeste 0 -- -- 35
2019-03-23 14:00:00 16.5 19 Nordeste 26 Nordeste 0 -- -- 36
2019-03-23 13:00:00 15.9 12 Nordeste 28 Este 0 -- -- 38
2019-03-23 12:00:00 15.2 10 Nordeste 19 Nordeste 0 -- -- 43
2019-03-23 11:00:00 15 9 Nordeste 14 Nordeste 0 -- -- 43
2019-03-23 10:00:00 13.8 8 Nordeste 13 Nordeste 0 -- -- 47
2019-03-23 09:00:00 8.9 7 Oeste 17 Oeste 0 -- -- 60
2019-03-23 08:00:00 6.9 14 Oeste 19 Oeste 0 -- -- 65
2019-03-23 07:00:00 6.5 15 Oeste 19 Oeste 0 -- -- 66
2019-03-23 06:00:00 6.6 12 Oeste 17 Oeste 0 -- -- 65
2019-03-23 05:00:00 6.7 13 Oeste 21 Oeste 0 -- -- 65
2019-03-23 04:00:00 7.1 14 Oeste 20 Oeste 0 -- -- 63
2019-03-23 03:00:00 7.7 12 Oeste 16 Oeste 0 -- -- 60
2019-03-23 02:00:00 8.4 11 Oeste 16 Oeste 0 -- -- 58
2019-03-23 01:00:00 9 8 Oeste 12 Oeste 0 -- -- 56
2019-03-23 00:00:00 9.2 8 Oeste 14 Oeste 0 -- -- 54
2019-03-22 23:00:00 11 7 Sur 11 Sudoeste 0 -- -- 49
2019-03-22 22:00:00 11.1 8 Sudoeste 10 Sudoeste 0 -- -- 49
2019-03-22 21:00:00 12.2 4 Nordeste 8 Nordeste 0 -- -- 46
2019-03-22 20:00:00 12.3 5 Nordeste 14 Nordeste 0 -- -- 46
2019-03-22 19:00:00 12.8 14 Nordeste 21 Este 0 -- -- 44
2019-03-22 18:00:00 13.9 14 Nordeste 24 Nordeste 0 -- -- 42
2019-03-22 17:00:00 14.4 14 Este 25 Este 0 -- -- 41
2019-03-22 16:00:00 14.3 17 Nordeste 30 Nordeste 0 -- -- 41
2019-03-22 15:00:00 14.5 13 Nordeste 27 Este 0 -- -- 40
2019-03-22 14:00:00 13.3 14 Este 24 Este 0 -- -- 39
2019-03-22 13:00:00 12.6 14 Este 26 Este 0 -- -- 39
2019-03-22 12:00:00 12.3 13 Este 27 Este 0 -- -- 39
2019-03-22 11:00:00 11.9 10 Nordeste 17 Nordeste 0 -- -- 39
2019-03-22 10:00:00 9.5 5 Oeste 12 Oeste 0 -- -- 46
2019-03-22 09:00:00 6.1 8 Oeste 15 Oeste 0 -- -- 52
2019-03-22 08:00:00 4.2 13 Oeste 18 Oeste 0 -- -- 56
2019-03-22 07:00:00 3.4 13 Oeste 18 Oeste 0 -- -- 58
2019-03-22 06:00:00 4.4 13 Oeste 17 Oeste 0 -- -- 55
2019-03-22 05:00:00 4.6 10 Oeste 17 Oeste 0 -- -- 53
2019-03-22 04:00:00 4.3 11 Oeste 18 Oeste 0 -- -- 55
2019-03-22 03:00:00 4.2 14 Oeste 18 Oeste 0 -- -- 54
2019-03-22 02:00:00 6.2 5 Sudoeste 9 Sudoeste 0 -- -- 47
2019-03-22 01:00:00 6.5 7 Sudoeste 10 Sudoeste 0 -- -- 50
2019-03-22 00:00:00 7.1 8 Sudoeste 10 Oeste 0 -- -- 43
2019-03-21 23:00:00 7.8 7 Sudoeste 10 Sur 0 -- -- 44
2019-03-21 22:00:00 8.1 9 Sur 15 Este 0 -- -- 43
2019-03-21 21:00:00 9 9 Este 15 Nordeste 0 -- -- 35
2019-03-21 20:00:00 9.1 12 Nordeste 18 Nordeste 0 -- -- 36
2019-03-21 19:00:00 10.3 14 Nordeste 20 Este 0 -- -- 40
2019-03-21 18:00:00 11.2 13 Este 24 Nordeste 0 -- -- 37
2019-03-21 17:00:00 11.5 8 Nordeste 27 Este 0 -- -- 36
2019-03-21 16:00:00 11.9 11 Nordeste 24 Este 0 -- -- 33
2019-03-21 15:00:00 11.7 13 Este 28 Este 0 -- -- 32
2019-03-21 14:00:00 12.1 10 Nordeste 22 Nordeste 0 -- -- 39
2019-03-21 13:00:00 11.4 6 Nordeste 15 Nordeste 0 -- -- 44
2019-03-21 12:00:00 9.9 8 Nordeste 15 Norte 0 -- -- 48
2019-03-21 11:00:00 7.7 9 Oeste 18 Oeste 0 -- -- 55
2019-03-21 10:00:00 5.8 12 Oeste 18 Oeste 0 -- -- 62
2019-03-21 09:00:00 3.6 11 Oeste 17 Oeste 0 -- -- 71
2019-03-21 08:00:00 1.3 13 Oeste 18 Oeste 0 -- -- 77
2019-03-21 07:00:00 0.8 15 Oeste 19 Oeste 0 -- -- 79
2019-03-21 06:00:00 0.5 17 Oeste 19 Oeste 0 -- -- 79
2019-03-21 05:00:00 1 18 Oeste 21 Oeste 0 -- -- 77
2019-03-21 04:00:00 2 16 Oeste 28 Oeste 0 -- -- 73
2019-03-21 03:00:00 2.8 17 Oeste 25 Oeste 0 -- -- 71
2019-03-21 02:00:00 3 17 Oeste 20 Oeste 0 -- -- 69
2019-03-21 01:00:00 3.5 14 Oeste 19 Sudoeste 0 -- -- 66
2019-03-21 00:00:00 4.2 13 Oeste 20 Oeste 0 -- -- 58